createdAt,value
2022-11-29T00:08:56.286Z,7.12
2022-11-29T00:24:01.255Z,7.12
2022-11-29T00:39:06.243Z,7.12
2022-11-29T00:54:11.299Z,7.12
2022-11-29T01:09:16.287Z,7.12
2022-11-29T01:24:21.293Z,7.12
2022-11-29T01:39:26.244Z,7.12
2022-11-29T01:54:31.289Z,7.12
2022-11-29T02:09:36.237Z,7.12
2022-11-29T02:24:41.276Z,7.12
2022-11-29T02:39:46.250Z,7.12
2022-11-29T02:54:51.264Z,7.18
2022-11-29T03:09:56.276Z,7.18
2022-11-29T03:25:01.370Z,7.18
2022-11-29T03:40:06.277Z,7.18
2022-11-29T03:55:11.265Z,7.18
2022-11-29T04:10:16.423Z,7.18
2022-11-29T04:25:21.311Z,7.12
2022-11-29T04:40:26.271Z,7.06
2022-11-29T04:55:31.454Z,7.06
2022-11-29T05:10:36.300Z,7
2022-11-29T05:25:41.330Z,7
2022-11-29T05:40:46.295Z,6.93
2022-11-29T05:55:51.288Z,6.93
2022-11-29T06:10:56.295Z,6.81
2022-11-29T06:26:04.140Z,6.75
2022-11-29T06:41:06.314Z,6.75
2022-11-29T06:56:11.317Z,6.62
2022-11-29T07:11:16.292Z,6.5
2022-11-29T07:26:21.329Z,6.62
2022-11-29T07:41:26.301Z,6.62
2022-11-29T07:56:31.296Z,6.56
2022-11-29T08:11:36.318Z,6.62
2022-11-29T08:26:41.305Z,6.68
2022-11-29T08:41:46.306Z,6.68
2022-11-29T08:57:38.098Z,6.87
2022-11-29T09:11:56.325Z,7
2022-11-29T09:26:59.324Z,7.06
2022-11-29T09:42:04.305Z,7.25
2022-11-29T09:57:11.015Z,7.37
2022-11-29T10:12:14.372Z,7.37
2022-11-29T10:27:19.334Z,7.31
2022-11-29T10:42:24.320Z,7.37
2022-11-29T10:57:29.323Z,7.43
2022-11-29T11:12:34.348Z,7.43
2022-11-29T11:27:39.347Z,7.37
2022-11-29T11:42:44.347Z,7.25
2022-11-29T11:57:49.363Z,7.25
2022-11-29T12:12:54.383Z,7.31
2022-11-29T12:27:59.359Z,7.31
2022-11-29T12:43:04.382Z,7.18
2022-11-29T12:58:09.321Z,7.18
2022-11-29T13:13:14.345Z,7.18
2022-11-29T13:28:19.333Z,7.18
2022-11-29T13:43:24.330Z,7.43
2022-11-29T13:58:29.368Z,7.31
2022-11-29T14:13:34.336Z,7.25
2022-11-29T14:28:39.354Z,7.5
2022-11-29T14:43:44.375Z,7.5
2022-11-29T14:58:49.341Z,7.31
2022-11-29T15:13:54.358Z,7.25
2022-11-29T15:28:59.360Z,7.18
2022-11-29T15:44:04.335Z,7.06
2022-11-29T15:59:09.339Z,7
2022-11-29T16:14:14.372Z,6.93
2022-11-29T16:29:19.370Z,6.93
2022-11-29T16:44:24.367Z,6.93
2022-11-29T16:59:31.341Z,6.87
2022-11-29T17:14:34.373Z,6.81
2022-11-29T17:29:39.348Z,6.68
2022-11-29T17:44:44.397Z,6.68
2022-11-29T17:59:49.344Z,6.62
2022-11-29T18:14:54.364Z,6.62
2022-11-29T18:29:59.400Z,6.62
2022-11-29T18:45:02.362Z,6.56
2022-11-29T19:00:07.361Z,6.56
2022-11-29T19:15:12.372Z,6.56
2022-11-29T19:30:17.393Z,6.56
2022-11-29T19:45:22.383Z,6.56
2022-11-29T20:00:27.415Z,6.5
2022-11-29T20:15:30.490Z,6.5
2022-11-29T20:30:35.405Z,6.43
2022-11-29T20:45:40.403Z,6.37
2022-11-29T21:00:45.383Z,6.31
2022-11-29T21:15:50.494Z,6.31
2022-11-29T21:30:55.415Z,6.31
2022-11-29T21:46:00.437Z,6.31
2022-11-29T22:01:05.597Z,6.31
2022-11-29T22:16:10.473Z,6.31
2022-11-29T22:31:15.415Z,6.31
2022-11-29T22:46:20.449Z,6.25
2022-11-29T23:01:25.480Z,6.18
2022-11-29T23:16:30.481Z,6.18
2022-11-29T23:31:35.506Z,6.12
2022-11-29T23:46:40.430Z,6.12
